createdAt,value
2018-08-20T00:00:55.914Z,8.27
2018-08-20T00:03:25.108Z,7.90
2018-08-20T00:05:54.665Z,8.50
2018-08-20T00:08:24.496Z,8.20
2018-08-20T00:10:54.773Z,8.43
2018-08-20T00:13:23.483Z,7.73
2018-08-20T00:15:52.388Z,8.23
2018-08-20T00:18:26.144Z,7.30
2018-08-20T00:20:54.765Z,7.90
2018-08-20T00:23:23.848Z,7.30
2018-08-20T00:25:54.660Z,7.03
2018-08-20T00:28:23.084Z,8.03
2018-08-20T00:30:52.204Z,8.67
2018-08-20T00:33:20.624Z,8.40
2018-08-20T00:35:49.167Z,8.00
2018-08-20T00:38:17.591Z,8.17
2018-08-20T00:40:46.404Z,8.60
2018-08-20T00:43:14.985Z,8.17
2018-08-20T00:45:43.499Z,8.53
2018-08-20T00:48:12.033Z,7.20
2018-08-20T00:50:40.461Z,9.20
2018-08-20T00:53:09.636Z,8.10
2018-08-20T00:55:38.079Z,8.40
2018-08-20T00:58:06.631Z,7.50
2018-08-20T01:00:35.181Z,8.37
2018-08-20T01:03:04.075Z,8.13
2018-08-20T01:05:32.611Z,7.50
2018-08-20T01:08:01.090Z,8.47
2018-08-20T01:10:29.596Z,8.27
2018-08-20T01:12:58.080Z,9.13
2018-08-20T01:15:26.896Z,8.77
2018-08-20T01:17:55.336Z,8.60
2018-08-20T01:20:23.804Z,8.57
2018-08-20T01:22:52.265Z,8.10
2018-08-20T01:25:20.683Z,7.23
2018-08-20T01:27:49.707Z,7.60
2018-08-20T01:30:18.240Z,7.80
2018-08-20T01:32:46.693Z,8.47
2018-08-20T01:35:28.583Z,6.87
2018-08-20T01:37:57.041Z,8.10
2018-08-20T01:40:25.773Z,7.10
2018-08-20T01:42:54.244Z,6.60
2018-08-20T01:45:22.824Z,7.77
2018-08-20T01:47:51.324Z,7.03
2018-08-20T01:50:19.812Z,7.70
2018-08-20T01:52:48.275Z,7.47
2018-08-20T01:55:17.564Z,7.13
2018-08-20T01:57:46.036Z,7.27
2018-08-20T02:00:14.724Z,6.83
2018-08-20T02:02:45.003Z,9.13
2018-08-20T02:05:13.568Z,7.73
2018-08-20T02:07:42.029Z,8.00
2018-08-20T02:10:11.148Z,7.40
2018-08-20T02:12:41.342Z,7.03
2018-08-20T02:15:09.850Z,7.50
2018-08-20T02:17:38.412Z,7.90
2018-08-20T02:20:06.913Z,8.10
2018-08-20T02:22:35.359Z,8.60
2018-08-20T02:25:03.943Z,8.00
2018-08-20T02:27:32.430Z,7.43
2018-08-20T02:30:00.904Z,6.57
2018-08-20T02:32:29.406Z,7.40
2018-08-20T02:34:57.991Z,7.50
2018-08-20T02:37:31.274Z,7.27
2018-08-20T02:40:00.172Z,8.23
2018-08-20T02:42:28.674Z,7.33
2018-08-20T02:44:57.190Z,7.60
2018-08-20T02:47:25.656Z,6.80
2018-08-20T02:49:54.166Z,7.27
2018-08-20T02:52:22.652Z,6.53
2018-08-20T02:54:51.102Z,6.17
2018-08-20T02:57:19.536Z,7.33
2018-08-20T02:59:48.010Z,6.83
2018-08-20T03:02:16.497Z,6.90
2018-08-20T03:04:44.964Z,6.87
2018-08-20T03:07:13.425Z,6.63
2018-08-20T03:09:41.867Z,6.20
2018-08-20T03:12:10.400Z,6.43
2018-08-20T03:14:38.884Z,6.97
2018-08-20T03:17:07.332Z,6.47
2018-08-20T03:19:35.787Z,6.83
2018-08-20T03:22:04.416Z,6.30
2018-08-20T03:24:33.563Z,6.70
2018-08-20T03:27:02.130Z,6.67
2018-08-20T03:29:30.581Z,6.30
2018-08-20T03:31:59.036Z,5.90
2018-08-20T03:34:27.485Z,6.00
2018-08-20T03:36:55.888Z,6.30
2018-08-20T03:39:24.344Z,6.50
2018-08-20T03:41:52.814Z,6.60
2018-08-20T03:44:21.269Z,6.70
2018-08-20T03:46:49.767Z,5.60
2018-08-20T03:49:18.214Z,6.00
2018-08-20T03:51:46.746Z,6.47
2018-08-20T03:54:15.233Z,6.17
2018-08-20T03:56:43.709Z,5.73
2018-08-20T03:59:26.253Z,6.33
2018-08-20T04:01:54.685Z,6.70
2018-08-20T04:04:23.142Z,6.33
2018-08-20T04:06:51.676Z,6.47
2018-08-20T04:09:20.176Z,6.50
2018-08-20T04:11:48.604Z,6.40
2018-08-20T04:14:17.040Z,6.30
2018-08-20T04:16:45.556Z,7.07
2018-08-20T04:19:14.640Z,6.10
2018-08-20T04:21:43.108Z,6.40
2018-08-20T04:24:11.531Z,5.87
2018-08-20T04:26:40.004Z,6.23
2018-08-20T04:29:08.783Z,6.17
2018-08-20T04:31:37.264Z,5.47
2018-08-20T04:34:05.909Z,5.97
2018-08-20T04:36:34.480Z,5.80
2018-08-20T04:39:02.945Z,5.80
2018-08-20T04:41:31.386Z,7.00
2018-08-20T04:43:59.832Z,6.77
2018-08-20T04:46:28.293Z,7.07
2018-08-20T04:48:56.756Z,6.70
2018-08-20T04:51:25.212Z,6.50
2018-08-20T04:53:53.761Z,7.40
2018-08-20T04:56:22.380Z,5.67
2018-08-20T04:58:50.817Z,5.83
2018-08-20T05:01:19.290Z,6.40
2018-08-20T05:03:47.754Z,5.63
2018-08-20T05:06:16.363Z,6.60
2018-08-20T05:08:45.432Z,6.50
2018-08-20T05:11:13.872Z,6.30
2018-08-20T05:13:42.407Z,6.00
2018-08-20T05:16:10.873Z,6.50
2018-08-20T05:18:39.613Z,6.33
2018-08-20T05:21:08.680Z,6.30
2018-08-20T05:23:37.165Z,6.63
2018-08-20T05:26:05.900Z,6.20
2018-08-20T05:28:34.352Z,6.43
2018-08-20T05:31:02.837Z,4.90
2018-08-20T05:33:31.243Z,5.43
2018-08-20T05:35:59.649Z,5.40
2018-08-20T05:38:28.163Z,5.80
2018-08-20T05:40:56.622Z,5.60
2018-08-20T05:43:25.064Z,6.13
2018-08-20T05:45:53.641Z,6.13
2018-08-20T05:48:22.094Z,6.43
2018-08-20T05:50:50.540Z,6.03
2018-08-20T05:53:19.042Z,5.67
2018-08-20T05:55:48.449Z,6.30
2018-08-20T05:58:18.434Z,5.87
2018-08-20T06:00:47.031Z,5.43
2018-08-20T06:03:15.534Z,6.67
2018-08-20T06:05:44.153Z,7.17
2018-08-20T06:08:12.605Z,6.23
2018-08-20T06:10:41.052Z,7.50
2018-08-20T06:13:09.551Z,6.30
2018-08-20T06:15:38.192Z,6.20
2018-08-20T06:18:06.994Z,7.13
2018-08-20T06:20:35.436Z,6.93
2018-08-20T06:23:04.239Z,6.80
2018-08-20T06:25:33.371Z,7.10
2018-08-20T06:28:01.993Z,7.53
2018-08-20T06:30:30.561Z,6.73
2018-08-20T06:32:59.049Z,6.33
2018-08-20T06:35:27.612Z,7.00
2018-08-20T06:37:56.249Z,7.10
2018-08-20T06:40:24.771Z,7.43
2018-08-20T06:42:53.230Z,7.60
2018-08-20T06:45:22.309Z,9.77
2018-08-20T06:47:50.904Z,7.80
2018-08-20T06:50:20.124Z,8.27
2018-08-20T06:52:48.562Z,7.77
2018-08-20T06:55:17.144Z,7.13
2018-08-20T06:57:46.558Z,8.20
2018-08-20T07:00:15.373Z,7.47
2018-08-20T07:02:43.840Z,6.67
2018-08-20T07:05:12.505Z,7.37
2018-08-20T07:07:41.295Z,7.07
2018-08-20T07:10:12.665Z,6.40
2018-08-20T07:12:41.419Z,5.60
2018-08-20T07:15:11.817Z,5.20
2018-08-20T07:17:40.276Z,5.83
2018-08-20T07:20:10.619Z,6.00
2018-08-20T07:22:39.182Z,5.87
2018-08-20T07:25:09.060Z,5.97
2018-08-20T07:27:38.382Z,5.53
2018-08-20T07:30:09.896Z,5.13
2018-08-20T07:32:38.344Z,4.93
2018-08-20T07:35:07.164Z,5.70
2018-08-20T07:37:35.692Z,6.10
2018-08-20T07:40:05.893Z,5.03
2018-08-20T07:42:34.554Z,5.57
2018-08-20T07:45:03.031Z,5.50
2018-08-20T07:47:31.611Z,4.27
2018-08-20T07:50:00.495Z,4.90
2018-08-20T07:52:29.070Z,5.40
2018-08-20T07:54:58.280Z,5.27
2018-08-20T07:57:26.771Z,5.10
2018-08-20T07:59:55.248Z,5.60
2018-08-20T08:02:24.011Z,4.70
2018-08-20T08:04:52.615Z,4.73
2018-08-20T08:07:21.125Z,6.10
2018-08-20T08:09:49.556Z,4.90
2018-08-20T08:12:18.122Z,5.83
2018-08-20T08:14:46.623Z,5.53
2018-08-20T08:17:15.088Z,5.27
2018-08-20T08:19:43.705Z,5.57
2018-08-20T08:22:12.151Z,5.30
2018-08-20T08:24:40.669Z,5.33
2018-08-20T08:27:09.174Z,5.70
2018-08-20T08:29:37.702Z,4.83
2018-08-20T08:32:06.302Z,4.80
2018-08-20T08:34:34.845Z,4.70
2018-08-20T08:37:03.469Z,5.20
2018-08-20T08:39:32.010Z,4.20
2018-08-20T08:42:00.507Z,4.77
2018-08-20T08:44:29.017Z,5.00
2018-08-20T08:46:57.534Z,4.43
2018-08-20T08:49:26.141Z,4.73
2018-08-20T08:51:55.209Z,5.50
2018-08-20T08:54:23.683Z,5.70
2018-08-20T08:56:52.187Z,5.10
2018-08-20T08:59:20.657Z,4.93
2018-08-20T09:01:49.219Z,5.50
2018-08-20T09:04:17.760Z,5.53
2018-08-20T09:06:46.194Z,5.53
2018-08-20T09:09:15.637Z,5.10
2018-08-20T09:11:44.197Z,4.13
2018-08-20T09:14:12.676Z,4.47
2018-08-20T09:16:41.196Z,4.70
2018-08-20T09:19:09.646Z,4.27
2018-08-20T09:21:38.148Z,4.90
2018-08-20T09:24:06.681Z,5.30
2018-08-20T09:26:35.153Z,4.47
2018-08-20T09:29:03.786Z,4.63
2018-08-20T09:31:32.383Z,4.13
2018-08-20T09:34:00.854Z,3.80
2018-08-20T09:36:29.470Z,4.67
2018-08-20T09:38:57.901Z,3.60
2018-08-20T09:41:26.384Z,4.27
2018-08-20T09:43:54.877Z,4.63
2018-08-20T09:46:23.894Z,4.37
2018-08-20T09:48:52.344Z,4.17
2018-08-20T09:51:20.796Z,4.23
2018-08-20T09:53:49.261Z,3.90
2018-08-20T09:56:17.859Z,4.60
2018-08-20T09:58:46.316Z,4.70
2018-08-20T10:01:14.836Z,3.70
2018-08-20T10:03:45.708Z,4.17
2018-08-20T10:06:15.221Z,4.10
2018-08-20T10:08:43.930Z,3.60
2018-08-20T10:11:13.045Z,4.30
2018-08-20T10:13:41.493Z,4.17
2018-08-20T10:16:10.307Z,3.60
2018-08-20T10:18:39.608Z,4.13
2018-08-20T10:21:08.322Z,4.53
2018-08-20T10:23:36.780Z,3.80
2018-08-20T10:26:05.899Z,3.90
2018-08-20T10:28:34.480Z,4.47
2018-08-20T10:31:03.013Z,4.70
2018-08-20T10:33:31.615Z,4.00
2018-08-20T10:36:00.108Z,4.23
2018-08-20T10:38:28.594Z,3.83
2018-08-20T10:40:57.160Z,3.90
2018-08-20T10:43:25.570Z,4.50
2018-08-20T10:45:59.383Z,4.07
2018-08-20T10:48:27.837Z,4.37
2018-08-20T10:50:56.277Z,4.20
2018-08-20T10:53:25.177Z,4.10
2018-08-20T10:55:53.674Z,4.20
2018-08-20T10:58:22.320Z,4.57
2018-08-20T11:00:50.803Z,3.53
2018-08-20T11:03:19.298Z,3.90
2018-08-20T11:05:47.748Z,4.40
2018-08-20T11:08:16.193Z,3.67
2018-08-20T11:10:44.678Z,3.33
2018-08-20T11:13:13.314Z,3.90
2018-08-20T11:15:41.863Z,3.30
2018-08-20T11:18:10.732Z,3.47
2018-08-20T11:20:39.193Z,4.33
2018-08-20T11:23:07.652Z,4.13
2018-08-20T11:25:36.153Z,3.73
2018-08-20T11:28:04.866Z,4.30
2018-08-20T11:30:33.436Z,3.67
2018-08-20T11:33:02.008Z,3.20
2018-08-20T11:35:30.593Z,3.83
2018-08-20T11:37:59.179Z,3.17
2018-08-20T11:40:27.750Z,3.53
2018-08-20T11:42:56.270Z,3.97
2018-08-20T11:45:24.709Z,3.70
2018-08-20T11:47:53.193Z,4.07
2018-08-20T11:50:21.629Z,4.40
2018-08-20T11:52:50.167Z,3.80
2018-08-20T11:55:18.588Z,3.70
2018-08-20T11:57:47.048Z,4.10
2018-08-20T12:00:16.055Z,4.20
2018-08-20T12:02:44.461Z,4.40
2018-08-20T12:05:12.941Z,3.80
2018-08-20T12:07:41.497Z,4.13
2018-08-20T12:10:11.125Z,4.03
2018-08-20T12:12:40.190Z,3.97
2018-08-20T12:15:10.536Z,4.07
2018-08-20T12:17:39.392Z,4.03
2018-08-20T12:20:09.835Z,3.60
2018-08-20T12:22:39.368Z,3.90
2018-08-20T12:25:10.111Z,4.57
2018-08-20T12:27:39.062Z,4.83
2018-08-20T12:30:08.965Z,4.43
2018-08-20T12:32:37.416Z,4.47
2018-08-20T12:35:06.273Z,4.10
2018-08-20T12:37:34.811Z,3.90
2018-08-20T12:40:03.461Z,3.90
2018-08-20T12:42:31.908Z,4.73
2018-08-20T12:45:00.361Z,4.63
2018-08-20T12:47:28.915Z,4.17
2018-08-20T12:49:57.442Z,4.30
2018-08-20T12:52:25.888Z,4.80
2018-08-20T12:54:54.321Z,4.40
2018-08-20T12:57:22.797Z,4.40
2018-08-20T12:59:54.897Z,4.53
2018-08-20T13:02:23.361Z,3.40
2018-08-20T13:04:52.352Z,3.87
2018-08-20T13:07:20.916Z,4.67
2018-08-20T13:09:49.496Z,4.97
2018-08-20T13:12:17.936Z,4.40
2018-08-20T13:14:48.196Z,4.70
2018-08-20T13:17:17.312Z,4.40
2018-08-20T13:19:45.764Z,4.53
2018-08-20T13:22:14.260Z,4.20
2018-08-20T13:24:42.721Z,4.30
2018-08-20T13:27:11.204Z,4.50
2018-08-20T13:29:39.756Z,4.50
2018-08-20T13:32:08.314Z,4.40
2018-08-20T13:34:36.785Z,4.70
2018-08-20T13:37:05.581Z,4.20
2018-08-20T13:39:34.190Z,4.13
2018-08-20T13:42:02.704Z,4.50
2018-08-20T13:44:31.616Z,4.57
2018-08-20T13:47:00.173Z,4.30
2018-08-20T13:49:28.707Z,4.30
2018-08-20T13:51:57.164Z,4.40
2018-08-20T13:54:25.681Z,5.03
2018-08-20T13:56:54.206Z,4.23
2018-08-20T13:59:22.613Z,3.90
2018-08-20T14:01:51.115Z,3.87
2018-08-20T14:04:20.234Z,3.23
2018-08-20T14:06:48.785Z,4.07
2018-08-20T14:09:18.029Z,3.80
2018-08-20T14:11:46.593Z,3.20
2018-08-20T14:14:15.069Z,3.63
2018-08-20T14:16:44.105Z,3.60
2018-08-20T14:19:12.603Z,3.63
2018-08-20T14:21:41.076Z,3.70
2018-08-20T14:24:09.689Z,3.87
2018-08-20T14:26:38.168Z,3.00
2018-08-20T14:29:06.774Z,3.57
2018-08-20T14:31:35.584Z,3.60
2018-08-20T14:34:04.080Z,3.03
2018-08-20T14:36:32.644Z,3.63
2018-08-20T14:39:01.126Z,3.03
2018-08-20T14:41:29.625Z,2.93
2018-08-20T14:43:58.109Z,2.70
2018-08-20T14:46:26.555Z,2.90
2018-08-20T14:48:55.080Z,3.10
2018-08-20T14:51:23.733Z,3.27
2018-08-20T14:53:52.388Z,3.50
2018-08-20T14:56:20.875Z,3.17
2018-08-20T14:58:50.393Z,3.87
2018-08-20T15:01:19.827Z,3.00
2018-08-20T15:03:48.327Z,3.60
2018-08-20T15:06:16.863Z,3.50
2018-08-20T15:08:45.353Z,3.10
2018-08-20T15:11:13.873Z,3.30
2018-08-20T15:13:42.300Z,3.07
2018-08-20T15:16:10.778Z,4.60
2018-08-20T15:18:39.408Z,3.60
2018-08-20T15:21:07.881Z,3.00
2018-08-20T15:23:36.449Z,3.80
2018-08-20T15:26:05.256Z,3.33
2018-08-20T15:28:33.795Z,2.97
2018-08-20T15:31:02.288Z,3.73
2018-08-20T15:33:30.989Z,3.97
2018-08-20T15:35:59.557Z,4.20
2018-08-20T15:38:28.023Z,3.40
2018-08-20T15:40:56.621Z,3.50
2018-08-20T15:43:25.208Z,6.50
2018-08-20T15:45:53.773Z,4.10
2018-08-20T15:48:22.225Z,4.20
2018-08-20T15:50:50.784Z,4.20
2018-08-20T15:53:19.322Z,3.40
2018-08-20T15:55:48.057Z,3.90
2018-08-20T15:58:16.587Z,4.27
2018-08-20T16:00:45.060Z,3.70
2018-08-20T16:03:13.512Z,4.80
2018-08-20T16:05:42.056Z,4.80
2018-08-20T16:08:10.578Z,5.77
2018-08-20T16:10:39.060Z,4.83
2018-08-20T16:13:09.495Z,5.40
2018-08-20T16:15:38.161Z,5.77
2018-08-20T16:18:06.709Z,5.70
2018-08-20T16:20:35.333Z,6.87
2018-08-20T16:23:03.888Z,5.60
2018-08-20T16:25:32.395Z,5.60
2018-08-20T16:28:00.900Z,5.60
2018-08-20T16:30:29.429Z,7.13
2018-08-20T16:32:57.952Z,7.00
2018-08-20T16:35:26.512Z,6.87
2018-08-20T16:37:55.016Z,6.80
2018-08-20T16:40:24.416Z,5.97
2018-08-20T16:42:52.913Z,6.73
2018-08-20T16:45:21.592Z,7.20
2018-08-20T16:47:49.989Z,6.60
2018-08-20T16:50:18.468Z,7.60
2018-08-20T16:52:47.022Z,7.73
2018-08-20T16:55:15.534Z,7.20
2018-08-20T16:57:44.030Z,7.70
2018-08-20T17:13:17.073Z,7.73
2018-08-20T17:15:45.557Z,8.00
2018-08-20T17:18:14.012Z,7.50
2018-08-20T17:20:43.299Z,7.73
2018-08-20T17:23:18.600Z,8.43
2018-08-20T17:25:47.276Z,7.03
2018-08-20T17:28:20.441Z,7.97
2018-08-20T17:30:52.310Z,7.60
2018-08-20T17:33:20.889Z,7.17
2018-08-20T17:35:49.981Z,7.60
2018-08-20T17:38:18.496Z,6.93
2018-08-20T17:40:47.028Z,8.17
2018-08-20T17:43:15.620Z,7.17
2018-08-20T17:45:44.251Z,8.10
2018-08-20T17:48:19.389Z,7.00
2018-08-20T17:50:48.036Z,6.60
2018-08-20T17:53:16.548Z,7.40
2018-08-20T17:55:45.081Z,6.50
2018-08-20T17:58:13.664Z,6.43
2018-08-20T18:00:47.505Z,6.50
2018-08-20T18:03:32.989Z,6.10
2018-08-20T18:06:03.584Z,6.87
2018-08-20T18:08:33.861Z,6.30
2018-08-20T18:11:02.634Z,6.43
2018-08-20T18:13:40.193Z,6.53
2018-08-20T18:16:09.909Z,6.40
2018-08-20T18:18:39.461Z,6.87
2018-08-20T18:21:08.168Z,7.13
2018-08-20T18:23:37.251Z,6.80
2018-08-20T18:26:05.809Z,6.87
2018-08-20T18:28:48.757Z,7.53
2018-08-20T18:31:25.694Z,7.37
2018-08-20T18:33:54.304Z,7.90
2018-08-20T18:36:24.528Z,7.83
2018-08-20T18:38:54.882Z,7.13
2018-08-20T18:41:32.404Z,7.13
2018-08-20T18:44:00.897Z,6.90
2018-08-20T18:46:29.505Z,6.93
2018-08-20T18:48:58.000Z,7.10
2018-08-20T18:51:26.613Z,7.03
2018-08-20T18:53:55.749Z,6.70
2018-08-20T18:56:24.334Z,6.73
2018-08-20T18:58:52.876Z,6.30
2018-08-20T19:01:21.427Z,6.33
2018-08-20T19:03:50.517Z,6.27
2018-08-20T19:06:19.164Z,6.00
2018-08-20T19:08:47.676Z,6.10
2018-08-20T19:11:16.285Z,6.40
2018-08-20T19:13:44.840Z,7.20
2018-08-20T19:16:35.276Z,6.13
2018-08-20T19:19:04.068Z,6.80
2018-08-20T19:21:36.250Z,6.70
2018-08-20T19:24:04.944Z,6.20
2018-08-20T19:26:34.111Z,6.03
2018-08-20T19:29:23.958Z,6.53
2018-08-20T19:31:52.789Z,6.37
2018-08-20T19:34:21.269Z,6.00
2018-08-20T19:36:49.969Z,5.57
2018-08-20T19:39:18.685Z,6.30
2018-08-20T19:41:47.181Z,6.70
2018-08-20T19:44:15.648Z,6.30
2018-08-20T19:46:44.156Z,6.57
2018-08-20T19:49:14.374Z,6.40
2018-08-20T19:51:44.424Z,5.17
2018-08-20T19:54:14.778Z,6.10
2018-08-20T19:56:43.405Z,5.33
2018-08-20T19:59:12.428Z,6.20
2018-08-20T20:01:41.089Z,6.10
2018-08-20T20:04:15.404Z,5.43
2018-08-20T20:06:44.627Z,6.47
2018-08-20T20:09:13.105Z,5.03
2018-08-20T20:11:43.152Z,5.17
2018-08-20T20:14:11.646Z,5.83
2018-08-20T20:16:45.473Z,5.10
2018-08-20T20:19:14.074Z,5.77
2018-08-20T20:21:42.674Z,5.37
2018-08-20T20:24:12.017Z,5.27
2018-08-20T20:26:40.767Z,5.93
2018-08-20T20:29:10.668Z,7.43
2018-08-20T20:31:40.405Z,7.13
2018-08-20T20:34:09.115Z,6.90
2018-08-20T20:36:37.664Z,7.20
2018-08-20T20:39:08.634Z,6.90
2018-08-20T20:41:37.077Z,7.37
2018-08-20T20:44:06.069Z,6.70
2018-08-20T20:46:34.611Z,7.20
2018-08-20T20:49:03.047Z,7.00
2018-08-20T20:51:31.495Z,6.43
2018-08-20T20:54:00.092Z,7.07
2018-08-20T20:56:28.815Z,7.10
2018-08-20T20:58:57.410Z,6.90
2018-08-20T21:01:25.858Z,7.50
2018-08-20T21:03:54.431Z,6.40
2018-08-20T21:06:23.036Z,6.87
2018-08-20T21:08:52.076Z,6.23
2018-08-20T21:11:21.775Z,6.53
2018-08-20T21:13:50.233Z,7.27
2018-08-20T21:16:24.396Z,6.10
2018-08-20T21:18:54.165Z,7.13
2018-08-20T21:21:23.573Z,7.00
2018-08-20T21:23:52.097Z,6.27
2018-08-20T21:26:21.198Z,6.00
2018-08-20T21:28:50.969Z,6.23
2018-08-20T21:31:21.069Z,6.70
2018-08-20T21:33:55.075Z,7.03
2018-08-20T21:36:23.577Z,7.00
2018-08-20T21:38:52.076Z,6.50
2018-08-20T21:41:26.375Z,7.07
2018-08-20T21:43:55.174Z,6.77
2018-08-20T21:46:23.662Z,6.30
2018-08-20T21:48:52.123Z,6.03
2018-08-20T21:51:22.782Z,6.27
2018-08-20T21:53:51.216Z,6.17
2018-08-20T21:56:19.721Z,7.10
2018-08-20T21:58:48.244Z,6.50
2018-08-20T22:01:17.453Z,5.83
2018-08-20T22:03:46.393Z,6.53
2018-08-20T22:06:15.172Z,6.00
2018-08-20T22:08:43.686Z,6.07
2018-08-20T22:11:12.649Z,6.03
2018-08-20T22:13:41.159Z,7.03
2018-08-20T22:16:19.434Z,6.10
2018-08-20T22:18:54.845Z,6.00
2018-08-20T22:21:23.542Z,6.07
2018-08-20T22:23:54.728Z,6.27
2018-08-20T22:26:23.200Z,6.03
2018-08-20T22:28:52.200Z,6.37
2018-08-20T22:31:21.299Z,5.90
2018-08-20T22:33:57.229Z,5.20
2018-08-20T22:36:26.654Z,5.57
2018-08-20T22:38:59.230Z,6.30
2018-08-20T22:41:28.894Z,6.30
2018-08-20T22:43:57.445Z,5.20
2018-08-20T22:46:26.328Z,6.47
2018-08-20T22:48:57.051Z,5.63
2018-08-20T22:51:26.648Z,5.43
2018-08-20T22:53:57.771Z,5.63
2018-08-20T22:56:34.375Z,5.90
2018-08-20T22:59:06.648Z,6.20
2018-08-20T23:01:35.421Z,5.90
2018-08-20T23:04:04.428Z,5.70
2018-08-20T23:06:32.904Z,6.20
2018-08-20T23:09:18.048Z,6.77
2018-08-20T23:11:46.601Z,6.37
2018-08-20T23:14:15.149Z,7.20
2018-08-20T23:16:43.749Z,6.30
2018-08-20T23:19:12.256Z,6.13
2018-08-20T23:21:42.940Z,7.23
2018-08-20T23:24:12.536Z,6.40
2018-08-20T23:26:41.207Z,6.30
2018-08-20T23:29:10.425Z,5.77
2018-08-20T23:31:39.240Z,5.80
2018-08-20T23:34:08.612Z,6.57
2018-08-20T23:36:37.505Z,7.07
2018-08-20T23:39:07.996Z,6.80
2018-08-20T23:41:36.732Z,6.60
2018-08-20T23:44:05.327Z,6.87
2018-08-20T23:46:46.358Z,6.57
2018-08-20T23:49:14.906Z,7.90
2018-08-20T23:51:43.547Z,7.37
2018-08-20T23:54:12.581Z,6.50
2018-08-20T23:56:41.097Z,6.90
2018-08-20T23:59:09.738Z,7.30
